createdAt,value
2023-03-26T00:02:26.887Z,2.85
2023-03-26T00:04:57.306Z,2.83
2023-03-26T00:07:26.650Z,3.15
2023-03-26T00:09:53.415Z,3.03
2023-03-26T00:12:20.184Z,2.80
2023-03-26T00:14:46.936Z,2.58
2023-03-26T00:17:13.708Z,2.72
2023-03-26T00:20:16.259Z,2.50
2023-03-26T00:22:44.083Z,2.83
2023-03-26T00:25:12.222Z,2.22
2023-03-26T00:27:41.130Z,2.78
2023-03-26T00:30:09.639Z,2.10
2023-03-26T00:32:38.293Z,2.58
2023-03-26T00:35:06.946Z,2.60
2023-03-26T00:37:37.871Z,2.40
2023-03-26T00:40:05.179Z,1.90
2023-03-26T00:42:31.945Z,2.30
2023-03-26T00:44:59.035Z,2.00
2023-03-26T00:47:27.392Z,2.20
2023-03-26T00:49:54.698Z,1.85
2023-03-26T00:52:21.783Z,1.85
2023-03-26T00:54:51.575Z,2.00
2023-03-26T00:57:32.720Z,2.08
2023-03-26T01:00:02.185Z,1.70
2023-03-26T01:02:29.044Z,2.00
2023-03-26T01:04:58.599Z,1.85
2023-03-26T01:07:26.659Z,1.33
2023-03-26T01:09:55.982Z,1.83
2023-03-26T01:12:25.616Z,1.35
2023-03-26T01:14:56.002Z,1.38
2023-03-26T01:17:24.470Z,1.73
2023-03-26T01:19:59.100Z,2.05
2023-03-26T01:22:27.274Z,1.50
2023-03-26T01:24:54.397Z,1.77
2023-03-26T01:27:25.321Z,1.77
2023-03-26T01:30:05.699Z,1.98
2023-03-26T01:32:47.712Z,1.90
2023-03-26T01:35:29.803Z,1.83
2023-03-26T01:38:05.044Z,1.90
2023-03-26T01:40:42.020Z,1.85
2023-03-26T01:43:32.166Z,1.77
2023-03-26T01:46:03.304Z,1.70
2023-03-26T01:48:35.149Z,1.50
2023-03-26T01:54:16.381Z,1.35
2023-03-26T01:57:19.746Z,1.08
2023-03-26T01:59:58.184Z,1.17
2023-03-26T02:02:30.544Z,1.00
2023-03-26T02:05:20.362Z,0.90
2023-03-26T02:08:02.829Z,0.90
2023-03-26T02:10:38.695Z,1.10
2023-03-26T02:13:06.915Z,0.85
2023-03-26T02:15:34.044Z,0.80
2023-03-26T02:18:04.272Z,1.00
2023-03-26T02:20:35.196Z,0.90
2023-03-26T02:23:07.333Z,0.93
2023-03-26T02:25:35.603Z,1.30
2023-03-26T02:28:03.495Z,1.13
2023-03-26T02:30:33.837Z,1.10
2023-03-26T02:33:03.324Z,1.55
2023-03-26T02:35:32.204Z,1.35
2023-03-26T02:38:01.352Z,1.60
2023-03-26T02:40:28.105Z,1.65
2023-03-26T02:42:54.769Z,1.85
2023-03-26T02:45:21.448Z,1.60
2023-03-26T02:47:48.181Z,2.00
2023-03-26T02:50:15.140Z,1.80
2023-03-26T02:52:41.798Z,1.75
2023-03-26T02:55:08.835Z,1.90
2023-03-26T02:57:35.513Z,1.90
2023-03-26T03:00:02.577Z,1.60
2023-03-26T03:02:29.509Z,1.90
2023-03-26T03:04:56.400Z,1.83
2023-03-26T03:07:23.059Z,2.08
2023-03-26T03:09:49.770Z,1.80
2023-03-26T03:12:16.424Z,2.20
2023-03-26T03:14:43.131Z,2.00
2023-03-26T03:17:09.875Z,2.30
2023-03-26T03:19:37.825Z,2.05
2023-03-26T03:22:04.478Z,2.03
2023-03-26T03:24:31.213Z,1.95
2023-03-26T03:26:57.910Z,2.00
2023-03-26T03:29:24.579Z,1.88
2023-03-26T03:31:53.639Z,2.20
2023-03-26T03:34:21.538Z,2.55
2023-03-26T03:36:51.883Z,2.35
2023-03-26T03:39:19.640Z,2.60
2023-03-26T03:41:47.491Z,2.60
2023-03-26T03:44:14.177Z,2.40
2023-03-26T03:46:42.645Z,2.40
2023-03-26T03:49:12.506Z,2.63
2023-03-26T03:51:42.705Z,2.78
2023-03-26T03:54:11.988Z,2.50
2023-03-26T03:56:38.679Z,2.60
2023-03-26T03:59:08.623Z,2.65
2023-03-26T04:01:38.919Z,2.70
2023-03-26T04:04:06.660Z,2.40
2023-03-26T04:06:35.544Z,2.50
2023-03-26T04:09:03.411Z,2.58
2023-03-26T04:11:33.848Z,2.00
2023-03-26T04:14:04.403Z,2.53
2023-03-26T04:16:32.774Z,2.60
2023-03-26T04:19:03.260Z,2.03
2023-03-26T04:21:31.373Z,1.90
2023-03-26T04:24:05.437Z,2.15
2023-03-26T04:26:33.262Z,2.70
2023-03-26T04:29:03.236Z,2.15
2023-03-26T04:31:31.403Z,2.28
2023-03-26T04:34:09.047Z,2.20
2023-03-26T04:36:36.786Z,2.40
2023-03-26T04:39:04.559Z,2.17
2023-03-26T04:41:32.464Z,2.17
2023-03-26T04:43:59.161Z,2.90
2023-03-26T04:46:26.229Z,2.17
2023-03-26T04:48:54.781Z,2.30
2023-03-26T04:51:25.690Z,2.40
2023-03-26T04:53:58.854Z,2.25
2023-03-26T04:56:55.418Z,2.10
2023-03-26T04:59:30.791Z,2.10
2023-03-26T05:01:58.173Z,2.30
2023-03-26T05:04:25.009Z,1.63
2023-03-26T05:06:52.072Z,1.77
2023-03-26T05:09:19.853Z,1.90
2023-03-26T05:11:46.502Z,1.65
2023-03-26T05:14:14.488Z,1.42
2023-03-26T05:16:41.216Z,1.88
2023-03-26T05:19:08.140Z,1.80
2023-03-26T05:21:35.453Z,1.90
2023-03-26T05:24:02.256Z,2.35
2023-03-26T05:26:28.980Z,2.05
2023-03-26T05:28:57.239Z,1.90
2023-03-26T05:31:25.922Z,2.13
2023-03-26T05:33:53.012Z,2.03
2023-03-26T05:36:20.176Z,2.40
2023-03-26T05:38:47.984Z,2.53
2023-03-26T05:41:16.112Z,2.20
2023-03-26T05:43:44.281Z,1.95
2023-03-26T05:46:12.159Z,2.33
2023-03-26T05:48:49.115Z,2.15
2023-03-26T05:51:17.077Z,2.53
2023-03-26T05:53:44.233Z,2.20
2023-03-26T05:56:15.856Z,2.20
2023-03-26T05:58:44.083Z,2.10
2023-03-26T06:01:13.826Z,2.00
2023-03-26T06:03:43.440Z,2.40
2023-03-26T06:06:20.959Z,2.25
2023-03-26T06:09:01.674Z,2.13
2023-03-26T06:11:30.312Z,2.30
2023-03-26T06:13:57.160Z,2.22
2023-03-26T06:16:26.185Z,2.20
2023-03-26T06:18:57.585Z,2.20
2023-03-26T06:21:26.433Z,2.20
2023-03-26T06:23:53.486Z,2.05
2023-03-26T06:26:21.904Z,1.80
2023-03-26T06:28:49.040Z,1.73
2023-03-26T06:31:15.730Z,1.65
2023-03-26T06:33:46.114Z,1.85
2023-03-26T06:36:14.007Z,1.67
2023-03-26T06:38:42.733Z,1.80
2023-03-26T06:41:10.905Z,1.77
2023-03-26T06:43:41.526Z,2.00
2023-03-26T06:46:11.395Z,1.58
2023-03-26T06:48:39.107Z,1.85
2023-03-26T06:51:06.967Z,1.80
2023-03-26T06:53:36.677Z,1.77
2023-03-26T06:56:07.087Z,2.15
2023-03-26T06:58:36.515Z,1.98
2023-03-26T07:01:05.346Z,2.00
2023-03-26T07:03:33.377Z,1.98
2023-03-26T07:06:00.158Z,1.70
2023-03-26T07:08:30.251Z,1.80
2023-03-26T07:10:58.451Z,1.92
2023-03-26T07:13:25.415Z,2.00
2023-03-26T07:15:54.671Z,2.00
2023-03-26T07:18:22.949Z,1.70
2023-03-26T07:20:53.753Z,2.00
2023-03-26T07:23:22.526Z,1.83
2023-03-26T07:25:51.800Z,1.60
2023-03-26T07:28:35.091Z,1.73
2023-03-26T07:31:30.375Z,2.05
2023-03-26T07:34:03.270Z,1.80
2023-03-26T07:36:34.804Z,1.70
2023-03-26T07:39:12.480Z,1.50
2023-03-26T07:42:27.822Z,1.63
2023-03-26T07:45:21.491Z,1.48
2023-03-26T07:47:48.929Z,1.40
2023-03-26T07:50:21.535Z,1.45
2023-03-26T07:52:48.698Z,1.33
2023-03-26T07:55:16.743Z,2.10
2023-03-26T07:57:58.728Z,1.67
2023-03-26T08:00:35.385Z,1.48
2023-03-26T08:03:39.878Z,1.48
2023-03-26T08:06:15.205Z,2.03
2023-03-26T08:09:09.786Z,1.70
2023-03-26T08:11:54.015Z,1.67
2023-03-26T08:14:32.944Z,1.63
2023-03-26T08:17:31.003Z,1.83
2023-03-26T08:20:00.665Z,1.77
2023-03-26T08:22:32.632Z,1.90
2023-03-26T08:25:11.025Z,1.75
2023-03-26T08:27:58.399Z,2.05
2023-03-26T08:30:27.629Z,2.20
2023-03-26T08:33:19.135Z,2.17
2023-03-26T08:35:49.833Z,2.28
2023-03-26T08:38:19.884Z,3.38
2023-03-26T08:41:35.788Z,4.07
2023-03-26T08:44:11.184Z,2.38
2023-03-26T08:47:14.989Z,2.28
2023-03-26T08:50:14.692Z,2.47
2023-03-26T08:52:49.919Z,2.30
2023-03-26T08:55:16.709Z,2.60
2023-03-26T08:57:52.449Z,2.45
2023-03-26T09:02:52.910Z,2.97
2023-03-26T09:05:50.769Z,2.33
2023-03-26T09:08:37.689Z,5.35
2023-03-26T09:12:28.993Z,2.63
2023-03-26T09:15:11.439Z,2.40
2023-03-26T09:18:17.239Z,2.63
2023-03-26T09:21:27.921Z,2.47
2023-03-26T09:24:40.662Z,3.05
2023-03-26T09:27:37.174Z,2.60
2023-03-26T09:30:41.942Z,2.40
2023-03-26T09:33:24.269Z,2.92
2023-03-26T09:36:13.194Z,2.60
2023-03-26T09:38:52.796Z,2.83
2023-03-26T09:41:38.580Z,2.10
2023-03-26T09:44:43.346Z,1.90
2023-03-26T09:47:29.758Z,1.98
2023-03-26T09:50:02.767Z,2.17
2023-03-26T09:52:47.495Z,2.40
2023-03-26T09:55:28.075Z,2.30
2023-03-26T09:58:07.114Z,2.90
2023-03-26T10:00:39.790Z,2.65
2023-03-26T10:03:43.960Z,2.50
2023-03-26T10:06:27.404Z,2.60
2023-03-26T10:09:10.443Z,2.38
2023-03-26T10:11:59.408Z,2.80
2023-03-26T10:14:50.683Z,2.88
2023-03-26T10:17:28.229Z,2.42
2023-03-26T10:20:07.315Z,2.60
2023-03-26T10:22:45.943Z,2.35
2023-03-26T10:25:37.375Z,2.70
2023-03-26T10:28:41.983Z,2.67
2023-03-26T10:31:46.294Z,2.78
2023-03-26T10:34:44.306Z,3.22
2023-03-26T10:37:25.515Z,2.85
2023-03-26T10:40:30.272Z,3.05
2023-03-26T10:43:27.573Z,3.03
2023-03-26T10:46:06.485Z,4.15
2023-03-26T10:48:36.905Z,3.65
2023-03-26T10:51:25.514Z,3.70
2023-03-26T10:54:13.044Z,3.25
2023-03-26T10:56:51.347Z,3.72
2023-03-26T10:59:19.387Z,3.88
2023-03-26T11:02:01.559Z,4.22
2023-03-26T11:04:55.698Z,3.30
2023-03-26T11:07:37.196Z,3.58
2023-03-26T11:10:34.294Z,4.03
2023-03-26T11:13:39.776Z,3.53
2023-03-26T11:16:33.679Z,3.40
2023-03-26T11:19:27.380Z,3.80
2023-03-26T11:22:18.692Z,4.30
2023-03-26T11:25:07.559Z,3.90
2023-03-26T11:27:52.561Z,3.95
2023-03-26T11:30:33.164Z,3.60
2023-03-26T11:33:09.785Z,4.00
2023-03-26T11:35:41.871Z,4.03
2023-03-26T11:38:34.160Z,4.50
2023-03-26T11:41:03.289Z,3.75
2023-03-26T11:43:35.450Z,4.05
2023-03-26T11:46:11.666Z,3.90
2023-03-26T11:48:46.953Z,4.78
2023-03-26T11:51:50.066Z,4.07
2023-03-26T11:54:16.876Z,3.63
2023-03-26T11:57:07.270Z,3.58
2023-03-26T11:59:58.482Z,4.00
2023-03-26T12:02:28.568Z,4.20
2023-03-26T12:05:21.933Z,3.72
2023-03-26T12:07:57.500Z,4.35
2023-03-26T12:10:34.819Z,3.83
2023-03-26T12:13:40.784Z,4.75
2023-03-26T12:16:21.045Z,5.03
2023-03-26T12:19:02.173Z,3.25
2023-03-26T12:21:29.508Z,4.03
2023-03-26T12:24:02.685Z,3.90
2023-03-26T12:26:35.152Z,3.88
2023-03-26T12:29:24.169Z,3.22
2023-03-26T12:31:53.739Z,3.25
2023-03-26T12:34:25.921Z,3.10
2023-03-26T12:36:58.354Z,3.25
2023-03-26T12:40:10.666Z,3.97
2023-03-26T12:44:55.668Z,2.90
2023-03-26T12:45:28.542Z,2.60
2023-03-26T12:54:48.193Z,2.70
2023-03-26T12:57:19.700Z,2.42
2023-03-26T13:00:23.347Z,2.80
2023-03-26T13:03:31.625Z,2.60
2023-03-26T13:06:59.824Z,2.58
2023-03-26T13:09:59.302Z,2.40
2023-03-26T13:12:31.079Z,2.22
2023-03-26T13:15:17.893Z,2.40
2023-03-26T13:18:19.787Z,2.15
2023-03-26T13:21:07.685Z,2.15
2023-03-26T13:23:45.731Z,2.28
2023-03-26T13:26:27.005Z,2.03
2023-03-26T13:29:13.068Z,1.98
2023-03-26T13:31:54.491Z,2.25
2023-03-26T13:34:52.028Z,1.90
2023-03-26T13:40:15.124Z,1.88
2023-03-26T13:43:09.893Z,1.90
2023-03-26T13:46:09.473Z,1.45
2023-03-26T13:49:10.737Z,1.50
2023-03-26T13:52:01.646Z,1.52
2023-03-26T13:55:21.032Z,1.30
2023-03-26T13:58:21.815Z,1.73
2023-03-26T14:01:12.771Z,1.42
2023-03-26T14:03:55.648Z,1.60
2023-03-26T14:06:35.006Z,1.88
2023-03-26T14:09:12.685Z,1.65
2023-03-26T14:12:21.146Z,1.67
2023-03-26T14:17:59.196Z,1.88
2023-03-26T14:20:47.983Z,1.88
2023-03-26T14:23:27.734Z,1.90
2023-03-26T14:26:24.211Z,2.05
2023-03-26T14:29:12.812Z,1.88
2023-03-26T14:31:42.577Z,2.20
2023-03-26T14:34:27.504Z,1.85
2023-03-26T14:37:05.951Z,1.90
2023-03-26T14:40:12.880Z,2.10
2023-03-26T14:43:10.029Z,2.10
2023-03-26T14:45:51.704Z,2.00
2023-03-26T14:48:45.824Z,1.90
2023-03-26T14:51:18.753Z,1.58
2023-03-26T14:54:00.087Z,1.70
2023-03-26T14:56:57.039Z,1.70
2023-03-26T14:59:35.836Z,1.88
2023-03-26T15:02:17.857Z,1.88
2023-03-26T15:04:54.002Z,1.80
2023-03-26T15:07:58.680Z,1.63
2023-03-26T15:10:39.885Z,1.65
2023-03-26T15:13:48.651Z,1.70
2023-03-26T15:16:49.646Z,1.80
2023-03-26T15:19:53.021Z,1.83
2023-03-26T15:22:54.017Z,1.80
2023-03-26T15:26:07.874Z,1.60
2023-03-26T15:29:22.130Z,1.88
2023-03-26T15:31:54.266Z,1.58
2023-03-26T15:34:36.017Z,1.98
2023-03-26T15:37:35.087Z,1.98
2023-03-26T15:40:26.070Z,1.55
2023-03-26T15:43:14.662Z,2.00
2023-03-26T15:45:41.736Z,2.25
2023-03-26T15:48:11.761Z,2.30
2023-03-26T15:50:38.706Z,2.42
2023-03-26T15:53:31.712Z,2.40
2023-03-26T15:56:10.592Z,2.53
2023-03-26T15:58:46.126Z,2.33
2023-03-26T16:01:33.429Z,2.17
2023-03-26T16:04:41.829Z,2.15
2023-03-26T16:07:36.942Z,2.42
2023-03-26T16:10:49.988Z,1.98
2023-03-26T16:13:39.461Z,1.98
2023-03-26T16:16:16.569Z,1.90
2023-03-26T16:18:55.340Z,2.15
2023-03-26T16:21:32.839Z,2.28
2023-03-26T16:24:03.077Z,2.70
2023-03-26T16:26:48.603Z,2.78
2023-03-26T16:29:26.102Z,2.55
2023-03-26T16:32:17.179Z,2.85
2023-03-26T16:35:01.274Z,3.83
2023-03-26T16:37:41.117Z,3.28
2023-03-26T16:40:17.207Z,3.42
2023-03-26T16:43:05.280Z,2.22
2023-03-26T16:45:55.373Z,2.28
2023-03-26T16:48:31.972Z,2.40
2023-03-26T16:51:41.625Z,1.70
2023-03-26T16:54:25.175Z,2.30
2023-03-26T16:57:16.407Z,2.40
2023-03-26T17:00:15.252Z,2.33
2023-03-26T17:02:41.933Z,2.75
2023-03-26T17:05:19.594Z,2.92
2023-03-26T17:08:12.026Z,2.58
2023-03-26T17:10:53.800Z,2.55
2023-03-26T17:13:45.251Z,2.95
2023-03-26T17:16:25.595Z,3.10
2023-03-26T17:19:13.950Z,3.08
2023-03-26T17:22:18.393Z,3.15
2023-03-26T17:24:55.194Z,3.63
2023-03-26T17:27:27.790Z,3.05
2023-03-26T17:30:22.750Z,3.70
2023-03-26T17:32:59.348Z,3.05
2023-03-26T17:35:47.614Z,3.47
2023-03-26T17:38:26.680Z,3.20
2023-03-26T17:40:55.748Z,3.20
2023-03-26T17:43:45.749Z,3.55
2023-03-26T17:46:31.139Z,3.10
2023-03-26T17:49:24.544Z,3.78
2023-03-26T17:52:16.436Z,3.75
2023-03-26T17:54:48.760Z,3.25
2023-03-26T17:57:23.366Z,3.67
2023-03-26T17:59:55.569Z,3.97
2023-03-26T18:02:38.427Z,3.03
2023-03-26T18:05:09.423Z,2.90
2023-03-26T18:08:17.190Z,3.30
2023-03-26T18:10:49.747Z,3.00
2023-03-26T18:13:42.682Z,2.78
2023-03-26T18:16:18.275Z,2.90
2023-03-26T18:18:57.295Z,2.70
2023-03-26T18:21:37.002Z,2.85
2023-03-26T18:24:09.780Z,3.10
2023-03-26T18:26:58.850Z,4.00
2023-03-26T18:29:34.626Z,3.13
2023-03-26T18:34:32.486Z,3.15
2023-03-26T18:37:02.561Z,2.95
2023-03-26T18:39:29.338Z,2.95
2023-03-26T18:41:57.673Z,3.53
2023-03-26T18:44:24.416Z,3.22
2023-03-26T18:46:53.019Z,3.53
2023-03-26T18:49:20.925Z,3.90
2023-03-26T18:51:56.706Z,3.83
2023-03-26T18:54:29.191Z,3.97
2023-03-26T18:56:55.964Z,3.90
2023-03-26T18:59:30.924Z,3.90
2023-03-26T19:02:04.654Z,4.47
2023-03-26T19:04:32.439Z,4.47
2023-03-26T19:07:00.842Z,4.82
2023-03-26T19:09:32.275Z,4.38
2023-03-26T19:12:18.752Z,3.92
2023-03-26T19:15:01.639Z,4.22
2023-03-26T19:17:33.496Z,3.63
2023-03-26T19:20:01.140Z,5.65
2023-03-26T19:22:29.995Z,4.20
2023-03-26T19:25:01.264Z,3.55
2023-03-26T19:27:28.766Z,3.72
2023-03-26T19:29:55.916Z,4.22
2023-03-26T19:32:31.834Z,3.55
2023-03-26T19:35:00.449Z,3.50
2023-03-26T19:37:30.377Z,4.10
2023-03-26T19:40:14.435Z,3.67
2023-03-26T19:42:45.129Z,3.75
2023-03-26T19:45:34.552Z,4.05
2023-03-26T19:48:14.906Z,3.92
2023-03-26T19:50:56.367Z,3.80
2023-03-26T19:53:30.405Z,3.88
2023-03-26T19:56:12.100Z,3.60
2023-03-26T19:58:42.468Z,4.10
2023-03-26T20:01:30.180Z,4.70
2023-03-26T20:04:00.876Z,3.85
2023-03-26T20:06:41.491Z,4.30
2023-03-26T20:09:12.033Z,4.00
2023-03-26T20:11:39.040Z,4.00
2023-03-26T20:14:18.861Z,4.20
2023-03-26T20:16:47.186Z,4.18
2023-03-26T20:19:16.593Z,4.25
2023-03-26T20:21:44.942Z,4.70
2023-03-26T20:24:16.101Z,4.10
2023-03-26T20:26:45.501Z,4.60
2023-03-26T20:29:14.875Z,5.15
2023-03-26T20:31:42.631Z,4.15
2023-03-26T20:34:17.587Z,4.28
2023-03-26T20:36:45.167Z,3.80
2023-03-26T20:39:11.830Z,4.30
2023-03-26T20:41:46.091Z,4.60
2023-03-26T20:44:15.025Z,4.50
2023-03-26T20:46:42.728Z,4.70
2023-03-26T20:49:10.634Z,4.65
2023-03-26T20:51:38.652Z,4.45
2023-03-26T20:54:06.519Z,4.22
2023-03-26T20:56:33.744Z,4.85
2023-03-26T20:59:10.522Z,5.05
2023-03-26T21:01:38.436Z,4.20
2023-03-26T21:04:06.357Z,4.50
2023-03-26T21:06:33.200Z,5.30
2023-03-26T21:09:00.376Z,4.60
2023-03-26T21:11:48.301Z,4.18
2023-03-26T21:14:41.964Z,4.70
2023-03-26T21:17:24.821Z,5.15
2023-03-26T21:19:52.999Z,5.18
2023-03-26T21:22:38.779Z,4.82
2023-03-26T21:25:29.741Z,4.65
2023-03-26T21:28:05.874Z,4.13
2023-03-26T21:30:34.329Z,4.85
2023-03-26T21:33:01.483Z,5.38
2023-03-26T21:35:29.215Z,3.70
2023-03-26T21:37:58.550Z,4.53
2023-03-26T21:40:25.498Z,4.55
2023-03-26T21:42:53.196Z,4.50
2023-03-26T21:45:20.891Z,4.30
2023-03-26T21:47:48.606Z,4.55
2023-03-26T21:50:18.922Z,4.82
2023-03-26T21:52:46.023Z,4.63
2023-03-26T21:55:23.590Z,4.78
2023-03-26T21:58:17.508Z,4.38
2023-03-26T22:00:54.284Z,4.97
2023-03-26T22:03:37.442Z,4.80
2023-03-26T22:06:08.992Z,4.22
2023-03-26T22:08:40.802Z,5.28
2023-03-26T22:11:10.393Z,4.65
2023-03-26T22:13:37.418Z,4.28
2023-03-26T22:16:05.545Z,4.28
2023-03-26T22:18:32.638Z,4.57
2023-03-26T22:21:00.831Z,4.30
2023-03-26T22:23:30.501Z,4.45
2023-03-26T22:25:57.194Z,4.40
2023-03-26T22:28:23.941Z,4.60
2023-03-26T22:30:50.712Z,4.28
2023-03-26T22:33:17.530Z,4.25
2023-03-26T22:35:44.701Z,4.38
2023-03-26T22:38:14.620Z,4.78
2023-03-26T22:40:41.291Z,4.68
2023-03-26T22:43:08.021Z,4.93
2023-03-26T22:45:37.497Z,3.88
2023-03-26T22:48:04.824Z,5.05
2023-03-26T22:50:32.446Z,4.47
2023-03-26T22:53:00.609Z,4.25
2023-03-26T22:55:29.115Z,4.05
2023-03-26T22:57:57.861Z,3.60
2023-03-26T23:00:25.912Z,3.70
2023-03-26T23:02:52.963Z,3.97
2023-03-26T23:05:19.774Z,4.07
2023-03-26T23:07:46.578Z,4.00
2023-03-26T23:10:16.269Z,3.95
2023-03-26T23:12:46.588Z,3.30
2023-03-26T23:15:16.856Z,3.28
2023-03-26T23:17:54.564Z,3.97
2023-03-26T23:20:23.011Z,3.30
2023-03-26T23:22:49.684Z,3.97
2023-03-26T23:25:17.850Z,4.03
2023-03-26T23:27:44.537Z,3.28
2023-03-26T23:30:12.974Z,3.53
2023-03-26T23:32:41.152Z,3.58
2023-03-26T23:35:09.800Z,2.88
2023-03-26T23:37:37.939Z,2.90
2023-03-26T23:40:06.174Z,2.58
2023-03-26T23:42:32.877Z,2.90
2023-03-26T23:45:05.484Z,2.30
2023-03-26T23:47:32.220Z,2.78
2023-03-26T23:49:59.009Z,2.60
2023-03-26T23:52:25.674Z,2.90
2023-03-26T23:54:52.333Z,2.95
2023-03-26T23:57:19.002Z,2.67
2023-03-26T23:59:45.713Z,2.80
